< < Back
Terminal Aerodrome Forecast


Current Version              Previous Versions:   1  2  3  4  5  6  7  8  9  

Terminal Aerodrome Forecast

976
FTUS42 KGSP 301752
TAFCLT
TAF
KCLT 301752Z 3018/0118 23009KT P6SM FEW045
      TEMPO 3020/3021 VRB10G20KT 3SM +TSRA SCT015 BKN040CB
     FM302100 24010KT P6SM TSRA SCT015 BKN040CB
     FM010000 26009KT P6SM OVC045
     FM011600 24007KT P6SM SCT050=



Latest METAR

697
SAUS70 KWBC 010600 RRI
MTRCLT
METAR KCLT 010552Z 22006KT 10SM OVC250 22/19 A2996 RMK AO2 SLP133
T02170194 10250 20217 58004


USA.gov is the U.S. government's official web portal to all federal, state and local government web resources and services.